createdAt,value
2023-01-30T00:01:57.687Z,-1.00
2023-01-30T00:04:25.698Z,-1.10
2023-01-30T00:06:53.546Z,-1.10
2023-01-30T00:09:21.438Z,-1.20
2023-01-30T00:11:49.290Z,-1.20
2023-01-30T00:14:18.591Z,-1.20
2023-01-30T00:16:46.539Z,-1.30
2023-01-30T00:19:14.392Z,-1.40
2023-01-30T00:21:42.254Z,-1.50
2023-01-30T00:24:10.314Z,-1.50
2023-01-30T00:26:38.346Z,-1.50
2023-01-30T00:29:06.241Z,-1.40
2023-01-30T00:31:35.436Z,-1.30
2023-01-30T00:34:03.655Z,-1.30
2023-01-30T00:36:31.502Z,-1.20
2023-01-30T00:39:00.092Z,-1.20
2023-01-30T00:41:48.093Z,-1.20
2023-01-30T00:44:33.687Z,-1.10
2023-01-30T00:47:09.504Z,-1.10
2023-01-30T00:49:37.902Z,-1.00
2023-01-30T00:52:06.341Z,-0.80
2023-01-30T00:54:34.450Z,-0.80
2023-01-30T00:57:02.634Z,-0.70
2023-01-30T00:59:30.510Z,-0.80
2023-01-30T01:01:58.493Z,-0.80
2023-01-30T01:04:27.929Z,-0.80
2023-01-30T01:06:55.762Z,-0.80
2023-01-30T01:09:23.677Z,-0.70
2023-01-30T01:11:51.676Z,-0.70
2023-01-30T01:14:19.522Z,-0.80
2023-01-30T01:16:48.113Z,-1.00
2023-01-30T01:19:16.407Z,-1.10
2023-01-30T01:21:45.742Z,-1.10
2023-01-30T01:24:15.514Z,-1.20
2023-01-30T01:26:43.813Z,-1.40
2023-01-30T01:29:14.975Z,-1.50
2023-01-30T01:31:43.017Z,-1.50
2023-01-30T01:34:11.136Z,-1.40
2023-01-30T01:36:54.982Z,-1.40
2023-01-30T01:39:24.782Z,-1.40
2023-01-30T01:41:51.749Z,-1.30
2023-01-30T01:44:19.671Z,-1.40
2023-01-30T01:46:51.065Z,-1.40
2023-01-30T01:49:24.128Z,-1.20
2023-01-30T01:51:57.742Z,-1.10
2023-01-30T01:54:33.581Z,-1.00
2023-01-30T01:57:05.921Z,-1.00
2023-01-30T01:59:38.979Z,-1.10
2023-01-30T02:02:10.151Z,-1.10
2023-01-30T02:04:58.492Z,-1.20
2023-01-30T02:07:27.033Z,-1.20
2023-01-30T02:09:56.730Z,-1.30
2023-01-30T02:12:25.747Z,-1.30
2023-01-30T02:14:56.257Z,-1.30
2023-01-30T02:17:24.501Z,-1.30
2023-01-30T02:19:58.482Z,-1.30
2023-01-30T02:23:01.944Z,-1.40
2023-01-30T02:26:00.673Z,-1.50
2023-01-30T02:28:50.780Z,-1.60
2023-01-30T02:31:28.534Z,-1.70
2023-01-30T02:34:09.381Z,-1.80
2023-01-30T02:36:47.560Z,-1.80
2023-01-30T02:39:27.829Z,-1.70
2023-01-30T02:42:06.387Z,-1.50
2023-01-30T02:44:45.807Z,-1.50
2023-01-30T02:47:19.316Z,-1.50
2023-01-30T02:49:51.878Z,-1.70
2023-01-30T02:52:20.748Z,-1.80
2023-01-30T02:54:49.106Z,-1.90
2023-01-30T02:57:21.064Z,-1.90
2023-01-30T02:59:56.744Z,-1.90
2023-01-30T03:02:43.141Z,-1.90
2023-01-30T03:05:40.832Z,-1.90
2023-01-30T03:08:20.763Z,-2.00
2023-01-30T03:10:56.674Z,-2.10
2023-01-30T03:13:33.959Z,-2.00
2023-01-30T03:16:07.699Z,-2.00
2023-01-30T03:18:41.196Z,-1.90
2023-01-30T03:21:09.944Z,-1.80
2023-01-30T03:23:37.840Z,-1.70
2023-01-30T03:26:07.399Z,-1.70
2023-01-30T03:28:35.997Z,-1.70
2023-01-30T03:31:04.089Z,-1.60
2023-01-30T03:33:32.092Z,-1.60
2023-01-30T03:36:01.324Z,-1.50
2023-01-30T03:38:29.286Z,-1.30
2023-01-30T03:40:57.584Z,-1.20
2023-01-30T03:43:25.576Z,-1.10
2023-01-30T03:45:53.815Z,-1.10
2023-01-30T03:48:22.129Z,-1.00
2023-01-30T03:50:50.105Z,-0.90
2023-01-30T03:53:19.651Z,-0.80
2023-01-30T03:55:47.526Z,-0.70
2023-01-30T03:58:15.563Z,-0.60
2023-01-30T04:00:43.629Z,-0.50
2023-01-30T04:03:11.831Z,-0.50
2023-01-30T04:05:39.870Z,-0.40
2023-01-30T04:08:09.944Z,-0.40
2023-01-30T04:10:39.355Z,-0.40
2023-01-30T04:13:07.404Z,-0.30
2023-01-30T04:15:35.375Z,-0.30
2023-01-30T04:18:19.150Z,-0.20
2023-01-30T04:20:51.185Z,-0.20
2023-01-30T04:23:25.566Z,-0.20
2023-01-30T04:25:55.386Z,-0.10
2023-01-30T04:28:25.919Z,-0.10
2023-01-30T04:30:54.844Z,-0.10
2023-01-30T04:33:41.039Z,0.00
2023-01-30T04:36:11.356Z,0.00
2023-01-30T04:38:40.533Z,0.10
2023-01-30T04:41:10.406Z,0.10
2023-01-30T04:43:41.560Z,0.20
2023-01-30T04:46:25.434Z,0.20
2023-01-30T04:48:53.529Z,0.20
2023-01-30T04:51:21.701Z,0.20
2023-01-30T04:53:49.988Z,0.20
2023-01-30T04:56:19.265Z,0.20
2023-01-30T04:58:49.374Z,0.30
2023-01-30T05:01:23.916Z,0.30
2023-01-30T05:03:52.954Z,0.30
2023-01-30T05:06:21.298Z,0.30
2023-01-30T05:08:50.488Z,0.30
2023-01-30T05:11:20.637Z,0.40
2023-01-30T05:13:48.854Z,0.40
2023-01-30T05:16:18.844Z,0.40
2023-01-30T05:18:47.118Z,0.40
2023-01-30T05:21:17.047Z,0.40
2023-01-30T05:23:45.401Z,0.50
2023-01-30T05:26:13.986Z,0.50
2023-01-30T05:28:43.763Z,0.50
2023-01-30T05:31:14.279Z,0.50
2023-01-30T05:33:42.677Z,0.50
2023-01-30T05:36:15.837Z,0.50
2023-01-30T05:38:44.153Z,0.50
2023-01-30T05:41:13.361Z,0.50
2023-01-30T05:43:42.979Z,0.60
2023-01-30T05:46:13.537Z,0.60
2023-01-30T05:48:41.625Z,0.60
2023-01-30T05:51:18.288Z,0.60
2023-01-30T05:53:46.392Z,0.70
2023-01-30T05:56:14.594Z,0.70
2023-01-30T05:58:44.224Z,0.70
2023-01-30T06:01:13.927Z,0.70
2023-01-30T06:03:41.912Z,0.70
2023-01-30T06:06:12.317Z,0.70
2023-01-30T06:08:40.656Z,0.80
2023-01-30T06:11:10.784Z,0.80
2023-01-30T06:13:39.388Z,0.80
2023-01-30T06:16:10.413Z,0.80
2023-01-30T06:18:38.763Z,0.80
2023-01-30T06:21:07.248Z,0.80
2023-01-30T06:23:35.417Z,0.80
2023-01-30T06:26:05.870Z,0.80
2023-01-30T06:28:36.249Z,0.80
2023-01-30T06:31:04.232Z,0.80
2023-01-30T06:33:33.533Z,0.80
2023-01-30T06:36:01.613Z,0.80
2023-01-30T06:38:29.599Z,0.80
2023-01-30T06:40:57.448Z,0.80
2023-01-30T06:43:25.370Z,0.80
2023-01-30T06:45:53.337Z,0.80
2023-01-30T06:48:21.268Z,0.80
2023-01-30T06:50:50.494Z,0.80
2023-01-30T06:53:18.447Z,0.90
2023-01-30T06:55:46.344Z,0.90
2023-01-30T06:58:15.462Z,0.90
2023-01-30T07:00:44.480Z,0.90
2023-01-30T07:03:13.750Z,0.90
2023-01-30T07:05:41.820Z,0.90
2023-01-30T07:08:12.025Z,0.90
2023-01-30T07:10:40.086Z,0.90
2023-01-30T07:13:08.118Z,1.00
2023-01-30T07:15:35.999Z,1.00
2023-01-30T07:18:03.961Z,1.00
2023-01-30T07:20:32.115Z,1.00
2023-01-30T07:23:00.117Z,1.10
2023-01-30T07:25:30.397Z,1.10
2023-01-30T07:27:59.773Z,1.20
2023-01-30T07:30:29.176Z,1.20
2023-01-30T07:32:59.171Z,1.30
2023-01-30T07:35:30.262Z,1.30
2023-01-30T07:37:58.788Z,1.40
2023-01-30T07:40:27.617Z,1.40
2023-01-30T07:43:01.197Z,1.50
2023-01-30T07:45:33.864Z,1.50
2023-01-30T07:48:01.970Z,1.60
2023-01-30T07:50:29.877Z,1.70
2023-01-30T07:52:57.770Z,1.80
2023-01-30T07:55:25.856Z,1.80
2023-01-30T07:57:53.879Z,1.80
2023-01-30T08:00:23.610Z,1.80
2023-01-30T08:02:51.585Z,1.90
2023-01-30T08:05:19.523Z,1.90
2023-01-30T08:07:48.302Z,2.00
2023-01-30T08:10:17.120Z,2.00
2023-01-30T08:12:45.454Z,2.00
2023-01-30T08:15:13.317Z,2.10
2023-01-30T08:17:42.535Z,2.10
2023-01-30T08:20:11.637Z,2.10
2023-01-30T08:22:39.769Z,2.10
2023-01-30T08:25:08.897Z,2.10
2023-01-30T08:27:36.939Z,2.00
2023-01-30T08:30:05.708Z,1.90
2023-01-30T08:32:34.523Z,2.00
2023-01-30T08:35:04.046Z,1.90
2023-01-30T08:37:31.998Z,1.90
2023-01-30T08:39:59.872Z,1.90
2023-01-30T08:42:27.980Z,1.90
2023-01-30T08:44:55.877Z,1.90
2023-01-30T08:47:23.786Z,2.00
2023-01-30T08:49:52.878Z,2.00
2023-01-30T08:52:22.203Z,2.00
2023-01-30T08:54:50.105Z,2.10
2023-01-30T08:57:18.058Z,2.30
2023-01-30T08:59:46.142Z,2.40
2023-01-30T09:02:14.719Z,2.50
2023-01-30T09:04:42.639Z,2.50
2023-01-30T09:07:10.729Z,2.60
2023-01-30T09:09:39.942Z,2.60
2023-01-30T09:12:08.018Z,2.80
2023-01-30T09:14:35.973Z,2.90
2023-01-30T09:17:04.140Z,3.10
2023-01-30T09:19:32.054Z,3.10
2023-01-30T09:22:00.013Z,3.20
2023-01-30T09:24:27.942Z,3.30
2023-01-30T09:26:58.955Z,3.30
2023-01-30T09:29:27.799Z,3.30
2023-01-30T09:31:57.096Z,3.40
2023-01-30T09:34:27.524Z,3.30
2023-01-30T09:36:55.485Z,3.40
2023-01-30T09:39:23.564Z,3.40
2023-01-30T09:42:11.971Z,3.50
2023-01-30T09:45:03.731Z,3.50
2023-01-30T09:47:41.411Z,3.50
2023-01-30T09:50:36.219Z,3.50
2023-01-30T09:53:12.676Z,3.50
2023-01-30T09:55:42.805Z,3.40
2023-01-30T09:58:18.924Z,3.30
2023-01-30T10:00:48.164Z,3.40
2023-01-30T10:03:21.209Z,3.40
2023-01-30T10:05:52.264Z,3.40
2023-01-30T10:08:46.976Z,3.50
2023-01-30T10:11:28.623Z,3.60
2023-01-30T10:14:13.272Z,3.70
2023-01-30T10:16:48.400Z,3.80
2023-01-30T10:19:48.876Z,3.80
2023-01-30T10:22:28.867Z,3.80
2023-01-30T10:25:08.322Z,3.80
2023-01-30T10:27:38.206Z,3.80
2023-01-30T10:30:15.130Z,3.80
2023-01-30T10:32:47.262Z,3.90
2023-01-30T10:35:19.502Z,3.90
2023-01-30T10:37:54.383Z,4.00
2023-01-30T10:40:28.369Z,4.00
2023-01-30T10:43:04.058Z,4.00
2023-01-30T10:45:41.329Z,4.00
2023-01-30T10:48:43.794Z,3.90
2023-01-30T10:51:26.045Z,4.00
2023-01-30T10:53:58.912Z,4.00
2023-01-30T10:56:35.227Z,4.00
2023-01-30T10:59:11.306Z,4.00
2023-01-30T11:01:44.947Z,4.10
2023-01-30T11:04:24.906Z,4.10
2023-01-30T11:06:54.680Z,4.10
2023-01-30T11:09:24.645Z,4.00
2023-01-30T11:11:53.989Z,4.10
2023-01-30T11:14:22.340Z,4.10
2023-01-30T11:16:54.239Z,4.00
2023-01-30T11:19:26.080Z,4.00
2023-01-30T11:21:56.519Z,4.00
2023-01-30T11:24:29.713Z,3.90
2023-01-30T11:27:10.571Z,3.90
2023-01-30T11:29:40.213Z,3.90
2023-01-30T11:32:19.869Z,3.90
2023-01-30T11:35:04.810Z,3.90
2023-01-30T11:37:35.375Z,3.90
2023-01-30T11:40:19.752Z,3.90
2023-01-30T11:42:50.573Z,3.90
2023-01-30T11:45:19.851Z,3.90
2023-01-30T11:48:02.264Z,3.90
2023-01-30T11:50:36.379Z,3.80
2023-01-30T11:53:08.509Z,3.70
2023-01-30T11:55:39.787Z,3.70
2023-01-30T11:58:11.504Z,3.70
2023-01-30T12:00:41.901Z,3.70
2023-01-30T12:03:15.400Z,3.60
2023-01-30T12:05:46.529Z,3.50
2023-01-30T12:08:40.491Z,3.50
2023-01-30T12:11:26.909Z,3.40
2023-01-30T12:13:58.660Z,3.30
2023-01-30T12:16:38.914Z,3.30
2023-01-30T12:19:20.869Z,3.20
2023-01-30T12:21:56.376Z,3.20
2023-01-30T12:24:31.068Z,3.20
2023-01-30T12:27:02.534Z,3.20
2023-01-30T12:29:40.898Z,3.20
2023-01-30T12:32:14.046Z,3.20
2023-01-30T12:34:46.756Z,3.20
2023-01-30T12:37:31.269Z,3.20
2023-01-30T12:40:13.885Z,3.30
2023-01-30T12:43:09.232Z,3.40
2023-01-30T12:45:51.849Z,3.40
2023-01-30T12:49:10.988Z,3.40
2023-01-30T12:51:54.704Z,3.50
2023-01-30T12:54:38.629Z,3.40
2023-01-30T12:57:23.155Z,3.40
2023-01-30T13:00:03.002Z,3.40
2023-01-30T13:02:49.855Z,3.50
2023-01-30T13:05:29.032Z,3.50
2023-01-30T13:08:15.662Z,3.50
2023-01-30T13:10:51.511Z,3.60
2023-01-30T13:13:25.558Z,3.60
2023-01-30T13:15:59.796Z,3.70
2023-01-30T13:18:33.338Z,3.80
2023-01-30T13:21:09.494Z,3.90
2023-01-30T13:23:53.944Z,3.90
2023-01-30T13:26:27.968Z,4.00
2023-01-30T13:28:59.646Z,4.10
2023-01-30T13:31:32.816Z,4.10
2023-01-30T13:34:07.795Z,4.30
2023-01-30T13:36:43.929Z,4.30
2023-01-30T13:41:56.589Z,4.40
2023-01-30T13:44:30.769Z,4.40
2023-01-30T13:47:05.440Z,4.50
2023-01-30T13:49:43.642Z,4.60
2023-01-30T13:52:21.583Z,4.60
2023-01-30T13:55:01.117Z,4.70
2023-01-30T13:57:43.068Z,4.70
2023-01-30T14:00:30.315Z,4.80
2023-01-30T14:03:31.831Z,4.80
2023-01-30T14:06:38.468Z,4.80
2023-01-30T14:09:20.273Z,4.80
2023-01-30T14:11:58.676Z,4.80
2023-01-30T14:14:30.672Z,4.80
2023-01-30T14:17:10.417Z,4.70
2023-01-30T14:19:45.142Z,4.60
2023-01-30T14:22:25.442Z,4.60
2023-01-30T14:25:34.880Z,4.60
2023-01-30T14:28:49.018Z,4.50
2023-01-30T14:31:51.583Z,4.60
2023-01-30T14:35:14.078Z,4.60
2023-01-30T14:38:05.867Z,4.60
2023-01-30T14:40:47.697Z,4.50
2023-01-30T14:43:52.806Z,4.50
2023-01-30T14:46:42.506Z,4.50
2023-01-30T14:49:31.443Z,4.50
2023-01-30T14:52:00.055Z,4.50
2023-01-30T14:54:42.293Z,4.40
2023-01-30T14:57:24.038Z,4.30
2023-01-30T15:00:14.269Z,4.40
2023-01-30T15:02:49.234Z,4.40
2023-01-30T15:05:20.973Z,4.40
2023-01-30T15:07:52.665Z,4.40
2023-01-30T15:10:47.124Z,4.40
2023-01-30T15:13:41.927Z,4.50
2023-01-30T15:16:37.902Z,4.60
2023-01-30T15:19:20.439Z,4.60
2023-01-30T15:22:00.693Z,4.50
2023-01-30T15:25:10.539Z,4.50
2023-01-30T15:27:54.961Z,4.40
2023-01-30T15:30:30.400Z,4.40
2023-01-30T15:33:22.834Z,4.50
2023-01-30T15:36:02.679Z,4.50
2023-01-30T15:38:33.153Z,4.50
2023-01-30T15:41:03.398Z,4.40
2023-01-30T15:44:07.954Z,4.40
2023-01-30T15:46:48.345Z,4.40
2023-01-30T15:49:41.525Z,4.40
2023-01-30T15:52:15.712Z,4.40
2023-01-30T15:54:51.506Z,4.40
2023-01-30T15:57:24.518Z,4.40
2023-01-30T15:59:56.979Z,4.40
2023-01-30T16:02:32.812Z,4.40
2023-01-30T16:05:15.606Z,4.40
2023-01-30T16:07:44.397Z,4.30
2023-01-30T16:10:17.344Z,4.30
2023-01-30T16:12:46.300Z,4.20
2023-01-30T16:15:21.212Z,4.20
2023-01-30T16:18:00.051Z,4.20
2023-01-30T16:20:35.447Z,4.20
2023-01-30T16:23:03.920Z,4.20
2023-01-30T16:25:34.490Z,4.20
2023-01-30T16:28:02.772Z,4.20
2023-01-30T16:30:32.563Z,4.20
2023-01-30T16:33:10.525Z,4.30
2023-01-30T16:35:45.634Z,4.20
2023-01-30T16:38:40.620Z,4.30
2023-01-30T16:41:30.708Z,4.30
2023-01-30T16:44:11.241Z,4.20
2023-01-30T16:46:57.100Z,4.20
2023-01-30T16:49:32.509Z,4.20
2023-01-30T16:52:07.732Z,4.20
2023-01-30T16:54:37.815Z,4.20
2023-01-30T16:57:06.344Z,4.10
2023-01-30T16:59:39.150Z,4.10
2023-01-30T17:02:08.839Z,4.10
2023-01-30T17:04:41.361Z,4.10
2023-01-30T17:07:37.079Z,4.10
2023-01-30T17:10:06.504Z,4.10
2023-01-30T17:12:49.344Z,4.10
2023-01-30T17:15:34.748Z,4.10
2023-01-30T17:18:04.525Z,4.10
2023-01-30T17:20:40.750Z,4.10
2023-01-30T17:23:10.963Z,4.00
2023-01-30T17:25:43.561Z,4.00
2023-01-30T17:28:17.763Z,4.00
2023-01-30T17:30:45.871Z,4.10
2023-01-30T17:33:15.090Z,4.10
2023-01-30T17:35:43.042Z,4.00
2023-01-30T17:38:12.826Z,4.00
2023-01-30T17:40:41.434Z,4.00
2023-01-30T17:43:11.559Z,4.00
2023-01-30T17:45:40.255Z,4.00
2023-01-30T17:48:08.697Z,3.90
2023-01-30T17:50:37.966Z,4.00
2023-01-30T17:53:06.186Z,3.90
2023-01-30T17:55:35.291Z,4.00
2023-01-30T17:58:03.219Z,4.00
2023-01-30T18:00:31.165Z,3.90
2023-01-30T18:03:02.501Z,3.90
2023-01-30T18:05:30.475Z,3.90
2023-01-30T18:07:59.942Z,3.90
2023-01-30T18:10:28.276Z,3.90
2023-01-30T18:12:56.245Z,3.90
2023-01-30T18:15:24.224Z,3.90
2023-01-30T18:17:54.908Z,3.90
2023-01-30T18:20:22.931Z,3.90
2023-01-30T18:22:50.866Z,3.90
2023-01-30T18:25:20.565Z,3.90
2023-01-30T18:27:48.863Z,3.90
2023-01-30T18:30:18.379Z,3.90
2023-01-30T18:32:53.025Z,3.90
2023-01-30T18:35:22.193Z,4.00
2023-01-30T18:38:01.394Z,4.00
2023-01-30T18:40:33.043Z,4.00
2023-01-30T18:43:00.978Z,4.00
2023-01-30T18:45:29.014Z,4.10
2023-01-30T18:47:59.291Z,4.10
2023-01-30T18:50:27.318Z,4.10
2023-01-30T18:52:55.292Z,4.10
2023-01-30T18:55:25.420Z,4.10
2023-01-30T18:57:54.841Z,4.10
2023-01-30T19:00:23.971Z,4.10
2023-01-30T19:02:52.828Z,4.10
2023-01-30T19:05:21.262Z,4.10
2023-01-30T19:07:49.367Z,4.10
2023-01-30T19:10:20.670Z,4.10
2023-01-30T19:13:06.158Z,4.00
2023-01-30T19:15:37.561Z,3.90
2023-01-30T19:18:06.156Z,3.90
2023-01-30T19:20:34.665Z,3.90
2023-01-30T19:23:02.699Z,3.80
2023-01-30T19:25:30.559Z,3.80
2023-01-30T19:27:58.467Z,3.80
2023-01-30T19:30:26.390Z,3.80
2023-01-30T19:32:58.677Z,3.80
2023-01-30T19:35:26.734Z,3.80
2023-01-30T19:37:57.393Z,3.80
2023-01-30T19:40:25.467Z,3.90
2023-01-30T19:42:56.858Z,3.90
2023-01-30T19:45:27.700Z,3.90
2023-01-30T19:47:57.017Z,3.90
2023-01-30T19:50:24.877Z,3.90
2023-01-30T19:52:54.125Z,4.00
2023-01-30T19:55:22.101Z,4.00
2023-01-30T19:57:49.975Z,4.00
2023-01-30T20:00:18.901Z,4.00
2023-01-30T20:02:47.100Z,4.00
2023-01-30T20:05:16.899Z,4.00
2023-01-30T20:07:46.368Z,4.10
2023-01-30T20:10:14.259Z,4.10
2023-01-30T20:12:42.222Z,4.10
2023-01-30T20:15:11.007Z,4.10
2023-01-30T20:17:39.024Z,4.10
2023-01-30T20:20:08.084Z,4.10
2023-01-30T20:22:37.308Z,4.10
2023-01-30T20:25:06.238Z,4.20
2023-01-30T20:27:34.449Z,4.20
2023-01-30T20:30:02.366Z,4.20
2023-01-30T20:32:30.888Z,4.20
2023-01-30T20:34:58.788Z,4.20
2023-01-30T20:37:27.809Z,4.20
2023-01-30T20:39:57.303Z,4.10
2023-01-30T20:42:25.255Z,4.20
2023-01-30T20:44:53.108Z,4.10
2023-01-30T20:47:21.001Z,4.20
2023-01-30T20:49:48.899Z,4.30
2023-01-30T20:52:16.967Z,4.30
2023-01-30T20:54:44.856Z,4.30
2023-01-30T20:57:14.433Z,4.30
2023-01-30T20:59:42.554Z,4.30
2023-01-30T21:02:10.827Z,4.30
2023-01-30T21:04:38.696Z,4.20
2023-01-30T21:07:06.585Z,4.30
2023-01-30T21:09:34.464Z,4.30
2023-01-30T21:12:02.359Z,4.30
2023-01-30T21:14:31.587Z,4.30
2023-01-30T21:16:59.529Z,4.20
2023-01-30T21:19:27.455Z,4.20
2023-01-30T21:21:56.972Z,4.20
2023-01-30T21:24:27.495Z,4.30
2023-01-30T21:26:57.409Z,4.30
2023-01-30T21:29:27.269Z,4.30
2023-01-30T21:31:57.581Z,4.30
2023-01-30T21:34:25.564Z,4.30
2023-01-30T21:37:11.268Z,4.30
2023-01-30T21:39:57.035Z,4.40
2023-01-30T21:42:41.845Z,4.40
2023-01-30T21:45:10.069Z,4.40
2023-01-30T21:47:39.915Z,4.40
2023-01-30T21:50:08.872Z,4.40
2023-01-30T21:52:36.940Z,4.40
2023-01-30T21:55:05.864Z,4.40
2023-01-30T21:57:34.262Z,4.50
2023-01-30T22:00:04.085Z,4.40
2023-01-30T22:02:33.279Z,4.40
2023-01-30T22:05:02.571Z,4.50
2023-01-30T22:07:31.247Z,4.40
2023-01-30T22:10:01.577Z,4.40
2023-01-30T22:12:31.709Z,4.40
2023-01-30T22:14:59.757Z,4.30
2023-01-30T22:17:27.778Z,4.30
2023-01-30T22:19:55.643Z,4.30
2023-01-30T22:22:25.714Z,4.30
2023-01-30T22:24:53.780Z,4.30
2023-01-30T22:27:21.673Z,4.30
2023-01-30T22:29:50.212Z,4.40
2023-01-30T22:32:18.128Z,4.30
2023-01-30T22:34:46.015Z,4.30
2023-01-30T22:37:13.914Z,4.20
2023-01-30T22:39:43.131Z,4.20
2023-01-30T22:42:11.637Z,4.20
2023-01-30T22:44:40.244Z,4.20
2023-01-30T22:47:08.181Z,4.30
2023-01-30T22:49:36.092Z,4.30
2023-01-30T22:52:03.966Z,4.30
2023-01-30T22:54:32.140Z,4.30
2023-01-30T22:57:01.384Z,4.20
2023-01-30T22:59:30.402Z,4.30
2023-01-30T23:01:58.504Z,4.30
2023-01-30T23:04:26.494Z,4.30
2023-01-30T23:06:54.361Z,4.30
2023-01-30T23:09:24.153Z,4.30
2023-01-30T23:12:08.112Z,4.30
2023-01-30T23:14:38.345Z,4.30
2023-01-30T23:17:27.237Z,4.30
2023-01-30T23:19:54.903Z,4.30
2023-01-30T23:22:23.077Z,4.40
2023-01-30T23:24:51.674Z,4.40
2023-01-30T23:27:19.699Z,4.40
2023-01-30T23:29:48.977Z,4.40
2023-01-30T23:32:19.799Z,4.40
2023-01-30T23:34:48.198Z,4.40
2023-01-30T23:37:16.140Z,4.30
2023-01-30T23:39:44.564Z,4.30
2023-01-30T23:42:12.611Z,4.30
2023-01-30T23:44:40.701Z,4.30
2023-01-30T23:47:09.955Z,4.20
2023-01-30T23:49:38.027Z,4.20
2023-01-30T23:52:06.138Z,4.20
2023-01-30T23:54:34.148Z,4.20
2023-01-30T23:57:02.070Z,4.20
2023-01-30T23:59:30.025Z,4.20
